Time;durP1;ratioP1;P1;durP2;ratioP2;P2;SDS_P1;SDS_P2;PMS_P1;PMS_P2;Temp;Humidity;BMP_temperature;BMP_pressure;BME280_temperature;BME280_humidity;BME280_pressure;Samples;Min_cycle;Max_cycle;Signal;HPM_P1;HPM_P2
2022/01/26 00:06:37;;;;;;;30.95;18.52;;;;;;;-3.91;64.02;101321.91;1745815;80;21109;-79
2022/01/26 00:09:05;;;;;;;31.80;16.48;;;;;;;-3.89;63.99;101315.49;1746043;80;20949;-80
2022/01/26 00:11:32;;;;;;;33.98;19.27;;;;;;;-3.91;63.92;101315.89;1746171;82;21488;-77
2022/01/26 00:14:01;;;;;;;31.60;18.30;;;;;;;-3.94;63.92;101314.59;1746017;82;20943;-79
2022/01/26 00:16:44;;;;;;;33.83;17.87;;;;;;;-3.97;63.90;101315.00;1746189;80;21563;-78
2022/01/26 00:19:11;;;;;;;31.57;17.35;;;;;;;-3.97;63.93;101314.14;1745852;82;21143;-78
2022/01/26 00:21:46;;;;;;;28.73;18.77;;;;;;;-3.98;63.94;101303.05;1746158;82;20931;-78
2022/01/26 00:24:26;;;;;;;34.13;18.35;;;;;;;-3.98;63.94;101299.20;1746213;82;20978;-80
2022/01/26 00:40:11;;;;;;;27.55;16.02;;;;;;;-3.92;63.73;101280.45;1821203;78;20962;-80
2022/01/26 00:42:38;;;;;;;20.10;13.18;;;;;;;-3.92;63.55;101288.58;1820658;78;20903;-78
2022/01/26 00:45:05;;;;;;;22.60;14.28;;;;;;;-3.92;63.28;101282.17;1821416;78;21525;-78
2022/01/26 00:47:32;;;;;;;22.20;14.40;;;;;;;-3.94;63.27;101270.62;1822465;78;20927;-79
2022/01/26 00:50:04;;;;;;;22.73;13.35;;;;;;;-3.93;63.31;101268.51;1821362;78;20982;-79
2022/01/26 00:52:39;;;;;;;22.73;13.32;;;;;;;-3.91;63.25;101266.83;1820677;78;20951;-79
2022/01/26 00:54:57;;;;;;;21.55;14.78;;;;;;;-3.91;63.08;101265.94;1819813;78;21045;-78
2022/01/26 00:57:24;;;;;;;20.70;12.85;;;;;;;-3.92;63.08;101263.81;1821487;78;21804;-78
2022/01/26 00:59:50;;;;;;;20.77;13.38;;;;;;;-3.96;62.91;101260.77;1821373;78;20963;-79
2022/01/26 01:02:17;;;;;;;23.52;12.88;;;;;;;-4.03;63.12;101260.28;1821522;78;21881;-79
2022/01/26 01:04:44;;;;;;;19.02;11.90;;;;;;;-4.08;62.91;101261.95;1821467;78;20884;-79
2022/01/26 01:07:17;;;;;;;22.80;12.75;;;;;;;-4.17;63.01;101253.31;1821506;78;20923;-79
2022/01/26 01:09:40;;;;;;;23.30;13.18;;;;;;;-4.20;63.16;101253.72;1820503;78;21133;-78
2022/01/26 01:12:07;;;;;;;23.98;13.58;;;;;;;-4.22;63.29;101251.14;1824078;78;20896;-79
2022/01/26 01:14:37;;;;;;;23.98;14.38;;;;;;;-4.25;63.45;101246.39;1824956;78;20876;-78
2022/01/26 01:17:05;;;;;;;21.65;14.03;;;;;;;-4.30;63.65;101242.50;1824920;78;21373;-79
2022/01/26 01:19:45;;;;;;;24.60;15.78;;;;;;;-4.32;63.73;101245.89;1825257;78;20867;-78
2022/01/26 01:24:59;;;;;;;22.17;14.13;;;;;;;-4.42;64.02;101250.91;1824876;78;20887;-79
2022/01/26 01:27:24;;;;;;;24.57;13.43;;;;;;;-4.48;64.13;101248.27;1820926;78;21369;-77
2022/01/26 01:29:45;;;;;;;21.20;12.50;;;;;;;-4.55;64.32;101240.09;1821220;78;20967;-79
2022/01/26 01:32:28;;;;;;;25.60;14.50;;;;;;;-4.61;64.51;101242.57;1804084;78;20892;-79
2022/01/26 01:34:38;;;;;;;28.27;16.17;;;;;;;-4.63;64.84;101240.41;1785379;79;21129;-79
2022/01/26 01:37:08;;;;;;;23.80;13.40;;;;;;;-4.64;65.08;101238.28;1792581;79;20931;-80
2022/01/26 01:39:36;;;;;;;25.62;16.05;;;;;;;-4.66;65.12;101230.15;1792496;80;20927;-79
2022/01/26 01:42:05;;;;;;;27.20;15.45;;;;;;;-4.68;65.23;101235.24;1792713;80;20923;-78
2022/01/26 01:44:32;;;;;;;25.88;15.28;;;;;;;-4.68;65.39;101227.99;1792970;80;20856;-79
2022/01/26 01:46:59;;;;;;;24.20;14.85;;;;;;;-4.68;65.50;101232.68;1792567;79;21120;-78
2022/01/26 01:49:26;;;;;;;26.05;15.55;;;;;;;-4.68;65.61;101226.28;1792769;80;20962;-80
2022/01/26 01:52:00;;;;;;;23.70;13.72;;;;;;;-4.66;65.77;101229.72;1792698;80;20872;-79
2022/01/26 01:54:25;;;;;;;24.10;15.75;;;;;;;-4.63;65.89;101223.78;1791839;80;20912;-77
2022/01/26 01:56:57;;;;;;;27.67;16.48;;;;;;;-4.62;65.88;101219.97;1792961;79;21357;-79
2022/01/26 01:59:29;;;;;;;27.62;14.63;;;;;;;-4.62;65.97;101211.02;1792861;79;21801;-79
2022/01/26 02:01:57;;;;;;;26.07;14.83;;;;;;;-4.57;66.02;101214.05;1792388;80;20836;-77
2022/01/26 02:04:23;;;;;;;28.50;15.25;;;;;;;-4.55;66.08;101210.66;1792802;79;20883;-78
2022/01/26 02:06:51;;;;;;;27.27;15.98;;;;;;;-4.52;66.09;101205.56;1792527;80;21357;-77
2022/01/26 02:09:17;;;;;;;25.10;15.20;;;;;;;-4.49;66.14;101197.06;1793252;80;20974;-79
2022/01/26 02:11:49;;;;;;;27.62;15.80;;;;;;;-4.45;66.19;101202.66;1791064;79;21126;-79
2022/01/26 02:14:30;;;;;;;25.00;14.95;;;;;;;-4.44;66.03;101205.23;1788440;79;20895;-78
2022/01/26 02:16:55;;;;;;;28.17;15.68;;;;;;;-4.41;66.09;101209.53;1784180;80;20904;-79
2022/01/26 02:50:03;;;;;;;22.95;13.13;;;;;;;-4.50;66.16;101204.31;1669063;84;20999;-78
2022/01/26 02:54:55;;;;;;;23.60;14.00;;;;;;;-4.52;66.59;101200.88;1610186;87;21445;-79
2022/01/26 02:57:38;;;;;;;21.35;12.40;;;;;;;-4.50;66.57;101208.16;1631860;83;21395;-78
2022/01/26 03:00:18;;;;;;;14.07;9.38;;;;;;;-4.50;66.52;101205.59;1711769;83;20965;-78
2022/01/26 03:02:59;;;;;;;15.75;9.63;;;;;;;-4.51;66.54;101206.41;1713509;83;20965;-77
2022/01/26 03:05:29;;;;;;;13.95;9.93;;;;;;;-4.53;66.62;101210.27;1713261;83;21153;-75
2022/01/26 03:08:06;;;;;;;17.20;11.33;;;;;;;-4.51;66.78;101206.41;1712937;83;21012;-84
2022/01/26 03:10:52;;;;;;;;;;;;;;;-4.49;66.83;101199.22;1714076;83;20920;-75
2022/01/26 03:13:00;;;;;;;21.35;12.00;;;;;;;-4.47;66.84;101197.94;1688747;83;20087;-76
2022/01/26 03:15:44;;;;;;;16.07;10.63;;;;;;;-4.51;66.87;101202.19;1692078;83;21440;-84
2022/01/26 03:20:44;;;;;;;18.57;10.78;;;;;;;-4.50;67.10;101201.75;1693988;84;20913;-86
2022/01/26 03:34:10;;;;;;;18.45;13.38;;;;;;;-4.47;67.00;101192.42;1766368;80;21083;-75
2022/01/26 03:39:23;;;;;;;18.70;11.97;;;;;;;-4.59;66.98;101185.87;1766305;79;21044;-77
2022/01/26 03:41:55;;;;;;;20.30;13.32;;;;;;;-4.65;66.97;101187.92;1765763;80;20930;-77
2022/01/26 03:44:18;;;;;;;23.12;13.03;;;;;;;-4.69;67.11;101184.04;1765358;79;21140;-77
2022/01/26 03:46:48;;;;;;;18.67;12.00;;;;;;;-4.71;67.13;101184.44;1765833;79;20887;-78
2022/01/26 03:49:14;;;;;;;18.65;12.53;;;;;;;-4.79;67.08;101183.94;1766156;81;20856;-77
2022/01/26 03:51:42;;;;;;;19.07;12.73;;;;;;;-4.83;67.24;101178.77;1765895;80;20935;-77
2022/01/26 03:54:09;;;;;;;22.50;12.30;;;;;;;-4.86;67.38;101174.48;1766006;79;21021;-77
2022/01/26 03:56:38;;;;;;;21.70;12.20;;;;;;;-4.87;67.43;101166.38;1765895;80;21154;-77
2022/01/26 03:59:05;;;;;;;18.77;10.43;;;;;;;-4.89;67.53;101165.50;1765692;81;20879;-77
2022/01/26 04:01:32;;;;;;;13.93;8.90;;;;;;;-4.88;67.48;101158.68;1765845;80;20951;-78
2022/01/26 04:03:59;;;;;;;14.73;9.50;;;;;;;-4.88;67.02;101159.95;1766127;80;20973;-77
2022/01/26 04:06:26;;;;;;;14.40;8.98;;;;;;;-4.92;66.84;101158.20;1729429;81;20871;-77
2022/01/26 04:08:53;;;;;;;14.85;10.60;;;;;;;-4.91;66.90;101155.67;1724134;82;21105;-77
2022/01/26 04:13:49;;;;;;;13.83;9.50;;;;;;;-4.82;66.71;101161.31;1789090;79;20950;-76
2022/01/26 04:16:17;;;;;;;10.78;7.92;;;;;;;-4.80;66.62;101163.05;1789077;79;20895;-77
2022/01/26 04:18:46;;;;;;;11.35;7.97;;;;;;;-4.77;66.60;101157.53;1789054;80;20919;-78
2022/01/26 04:21:23;;;;;;;14.13;8.88;;;;;;;-4.73;66.44;101151.19;1789092;79;21092;-75
2022/01/26 04:26:10;;;;;;;14.53;8.23;;;;;;;-4.65;66.19;101156.38;1789218;80;20942;-77
2022/01/26 04:28:49;;;;;;;14.95;7.35;;;;;;;-4.64;65.96;101152.98;1789018;80;21353;-77
2022/01/26 04:31:11;;;;;;;10.45;4.95;;;;;;;-4.66;65.70;101159.36;1788907;80;20941;-77
2022/01/26 04:33:38;;;;;;;10.13;6.72;;;;;;;-4.69;65.79;101161.02;1789577;80;21140;-76
2022/01/26 04:36:09;;;;;;;10.28;6.30;;;;;;;-4.74;65.56;101160.11;1789258;80;21400;-76
2022/01/26 04:38:40;;;;;;;12.10;7.28;;;;;;;-4.75;65.44;101157.98;1788853;79;20892;-76
2022/01/26 04:41:49;;;;;;;15.70;8.30;;;;;;;-4.75;65.48;101159.26;1788702;79;20998;-77
2022/01/26 04:43:37;;;;;;;13.72;8.15;;;;;;;-4.76;65.43;101157.52;1775019;80;21449;-76
2022/01/26 04:46:02;;;;;;;10.95;7.12;;;;;;;-4.75;65.21;101157.12;1788726;79;21971;-78
2022/01/26 04:48:29;;;;;;;11.05;6.50;;;;;;;-4.81;65.24;101162.59;1788878;79;20919;-77
2022/01/26 04:50:56;;;;;;;10.93;6.60;;;;;;;-4.84;65.53;101159.16;1789282;80;20931;-80
2022/01/26 04:53:23;;;;;;;12.75;7.67;;;;;;;-4.87;65.54;101156.55;1789049;80;20959;-77
2022/01/26 04:55:50;;;;;;;12.40;7.40;;;;;;;-4.89;65.67;101150.16;1789539;80;21377;-77
2022/01/26 04:58:17;;;;;;;10.68;7.95;;;;;;;-4.89;65.58;101151.83;1789151;79;21528;-77
2022/01/26 05:00:44;;;;;;;9.80;6.92;;;;;;;-4.89;65.62;101148.87;1789245;79;20884;-76
2022/01/26 05:03:11;;;;;;;8.93;5.65;;;;;;;-4.88;65.53;101154.41;1789410;80;20940;-77
2022/01/26 05:05:38;;;;;;;12.73;8.15;;;;;;;-4.89;65.49;101152.71;1788995;79;21429;-77
2022/01/26 05:08:05;;;;;;;13.18;7.83;;;;;;;-4.89;65.51;101148.87;1789712;80;20872;-78
2022/01/26 05:10:34;;;;;;;13.68;7.50;;;;;;;-4.88;65.47;101151.86;1789059;80;21354;-76
2022/01/26 05:13:01;;;;;;;13.22;7.50;;;;;;;-4.88;65.50;101145.47;1792439;79;20923;-77
2022/01/26 05:15:28;;;;;;;15.83;6.80;;;;;;;-4.88;65.51;101141.63;1794529;79;21452;-77
2022/01/26 05:17:56;;;;;;;11.35;7.22;;;;;;;-4.89;65.39;101137.77;1794526;79;20856;-77
2022/01/26 05:20:23;;;;;;;13.22;8.15;;;;;;;-4.98;65.34;101130.84;1794581;79;21421;-77
2022/01/26 05:22:50;;;;;;;13.72;7.90;;;;;;;-4.92;65.51;101144.98;1794478;79;21117;-76
2022/01/26 05:27:13;;;;;;;14.50;8.65;;;;;;;-4.83;65.57;101148.07;1816365;79;22256;-77
2022/01/26 05:29:40;;;;;;;13.40;8.43;;;;;;;-4.86;65.47;101149.33;1789659;80;20919;-77
2022/01/26 05:32:08;;;;;;;14.78;8.68;;;;;;;-4.85;65.50;101148.47;1789439;80;21766;-77
2022/01/26 05:34:34;;;;;;;14.58;8.73;;;;;;;-4.87;65.40;101147.59;1789415;79;21414;-77
2022/01/26 05:37:01;;;;;;;16.77;9.05;;;;;;;-4.88;65.29;101153.14;1789514;79;20908;-78
2022/01/26 05:39:28;;;;;;;15.83;9.68;;;;;;;-4.89;65.29;101146.31;1789490;80;20936;-78
2022/01/26 05:41:57;;;;;;;17.15;9.23;;;;;;;-4.90;65.26;101152.69;1789563;80;20971;-78
2022/01/26 05:44:24;;;;;;;14.23;9.10;;;;;;;-4.90;65.25;101155.24;1789927;80;21786;-79
2022/01/26 05:46:50;;;;;;;17.90;10.03;;;;;;;-4.91;65.12;101153.51;1789841;80;20927;-77
2022/01/26 05:49:18;;;;;;;17.67;9.85;;;;;;;-4.92;65.21;101151.38;1789468;80;20880;-77
2022/01/26 05:51:46;;;;;;;18.05;9.58;;;;;;;-4.89;65.31;101151.44;1789795;80;20915;-78
2022/01/26 05:54:15;;;;;;;22.05;9.78;;;;;;;-4.85;65.38;101152.31;1789326;80;20970;-78
2022/01/26 05:56:43;;;;;;;18.98;9.88;;;;;;;-4.83;65.47;101151.48;1789761;80;21131;-78
2022/01/26 05:59:10;;;;;;;18.25;10.45;;;;;;;-4.79;65.44;101149.41;1789458;79;20892;-76
2022/01/26 06:01:37;;;;;;;16.23;10.65;;;;;;;-4.79;65.39;101147.27;1789936;80;20852;-77
2022/01/26 06:04:04;;;;;;;23.57;10.95;;;;;;;-4.80;65.34;101149.41;1789451;80;20876;-76
2022/01/26 06:06:32;;;;;;;20.82;11.08;;;;;;;-4.80;65.35;101145.56;1789367;79;21409;-77
2022/01/26 06:08:58;;;;;;;20.12;9.75;;;;;;;-4.78;65.40;101147.69;1789364;79;21133;-78
2022/01/26 06:11:27;;;;;;;17.25;9.33;;;;;;;-4.75;65.13;101146.90;1789371;80;20884;-78
2022/01/26 06:13:55;;;;;;;18.48;9.05;;;;;;;-4.74;65.10;101143.05;1789418;80;20939;-81
2022/01/26 06:16:23;;;;;;;23.42;11.08;;;;;;;-4.71;65.03;101140.95;1754634;81;21014;-78
2022/01/26 06:18:51;;;;;;;27.87;13.60;;;;;;;-4.67;65.07;101140.14;1742237;81;20929;-78
2022/01/26 06:21:18;;;;;;;22.27;11.08;;;;;;;-4.67;64.85;101132.47;1739215;82;21496;-79
2022/01/26 06:23:46;;;;;;;13.80;8.55;;;;;;;-4.64;64.69;101129.95;1739317;82;20926;-78
2022/01/26 06:26:14;;;;;;;16.45;9.05;;;;;;;-4.66;64.40;101131.64;1732903;82;20900;-78
2022/01/26 06:28:42;;;;;;;17.90;9.90;;;;;;;-4.72;64.48;101126.45;1716942;83;21003;-77
2022/01/26 06:31:11;;;;;;;17.92;10.35;;;;;;;-4.76;64.63;101131.94;1784195;80;21018;-78
2022/01/26 06:33:41;;;;;;;18.07;10.68;;;;;;;-4.75;64.74;101127.28;1784174;80;21554;-78
2022/01/26 06:36:12;;;;;;;19.12;10.80;;;;;;;-4.75;64.62;101127.28;1784406;80;20911;-79
2022/01/26 06:38:41;;;;;;;16.80;9.03;;;;;;;-4.76;64.67;101129.39;1783863;80;21515;-79
2022/01/26 06:41:08;;;;;;;15.60;9.03;;;;;;;-4.75;64.75;101129.84;1783960;80;20888;-79
2022/01/26 06:43:43;;;;;;;12.37;7.53;;;;;;;-4.71;64.85;101133.27;1783571;80;20931;-80
2022/01/26 06:46:06;;;;;;;17.90;9.43;;;;;;;-4.66;64.67;101134.20;1782369;80;21156;-78
2022/01/26 06:48:59;;;;;;;16.55;7.62;;;;;;;-4.66;64.70;101127.38;1783899;80;20916;-79
2022/01/26 06:51:17;;;;;;;14.43;7.72;;;;;;;-4.62;64.69;101132.97;1780372;80;21523;-80
2022/01/26 06:53:44;;;;;;;17.73;8.78;;;;;;;-4.60;64.77;101123.61;1783432;80;20888;-79
2022/01/26 06:56:12;;;;;;;13.95;8.35;;;;;;;-4.54;64.71;101129.19;1783740;80;20837;-77
2022/01/26 06:58:39;;;;;;;16.55;9.90;;;;;;;-4.51;64.57;101130.92;1784176;80;20986;-77
2022/01/26 07:01:06;;;;;;;17.32;9.23;;;;;;;-4.47;64.73;101131.39;1783534;80;20931;-78
2022/01/26 07:03:33;;;;;;;14.63;9.58;;;;;;;-4.44;64.90;101124.61;1783841;80;20904;-79
2022/01/26 07:06:00;;;;;;;12.68;8.55;;;;;;;-4.35;64.92;101125.13;1783458;80;20939;-77
2022/01/26 07:08:27;;;;;;;16.23;8.68;;;;;;;-4.27;64.89;101122.62;1783914;80;20912;-79
2022/01/26 07:10:55;;;;;;;16.05;8.98;;;;;;;-4.20;64.82;101120.57;1783660;80;21358;-78
2022/01/26 07:13:26;;;;;;;12.82;7.78;;;;;;;-4.18;64.50;101125.25;1783771;80;20963;-77
2022/01/26 07:21:27;;;;;;;13.20;8.15;;;;;;;-4.23;64.53;101114.97;1784340;80;21038;-77
2022/01/26 07:23:58;;;;;;;13.55;7.90;;;;;;;-4.23;64.37;101125.64;1783616;80;21625;-77
2022/01/26 07:26:28;;;;;;;16.00;8.65;;;;;;;-4.25;64.25;101117.09;1783333;80;20884;-77
2022/01/26 07:28:59;;;;;;;14.78;8.33;;;;;;;-4.28;64.24;101119.20;1783627;80;20935;-78
2022/01/26 07:31:26;;;;;;;17.82;12.33;;;;;;;-4.30;64.34;101112.36;1783234;80;21366;-78
2022/01/26 07:33:55;;;;;;;16.00;8.48;;;;;;;-4.23;64.60;101112.41;1783848;80;21022;-78
2022/01/26 07:36:22;;;;;;;16.75;10.90;;;;;;;-4.13;64.36;101109.53;1783930;80;21120;-78
2022/01/26 07:38:50;;;;;;;13.93;8.40;;;;;;;-4.08;64.13;101110.84;1783447;80;21480;-77
2022/01/26 07:41:18;;;;;;;14.33;8.15;;;;;;;-4.05;63.94;101112.98;1783475;80;20916;-77
2022/01/26 07:43:45;;;;;;;18.27;9.05;;;;;;;-4.02;63.73;101110.47;1783465;80;21006;-77
2022/01/26 07:46:13;;;;;;;14.55;8.48;;;;;;;-4.00;63.50;101114.33;1783621;80;20951;-79
2022/01/26 07:48:40;;;;;;;14.03;8.13;;;;;;;-4.01;63.22;101107.47;1783857;80;21121;-77
2022/01/26 07:51:07;;;;;;;13.08;7.50;;;;;;;-3.98;63.09;101113.89;1783530;80;21342;-76
2022/01/26 07:53:34;;;;;;;16.50;9.08;;;;;;;-3.97;62.90;101116.47;1783499;80;20959;-77
2022/01/26 07:56:01;;;;;;;16.00;9.30;;;;;;;-3.96;62.94;101117.33;1783721;80;20963;-77
2022/01/26 07:58:28;;;;;;;15.20;10.70;;;;;;;-3.99;62.98;101104.07;1783820;80;20892;-76
2022/01/26 08:00:55;;;;;;;17.37;9.58;;;;;;;-3.86;63.10;101113.99;1783796;80;21386;-89
2022/01/26 08:03:22;;;;;;;18.67;9.65;;;;;;;-3.76;63.04;101114.90;1785362;80;20968;-91
2022/01/26 08:05:52;;;;;;;12.23;7.47;;;;;;;-3.72;62.60;101115.80;1784946;80;21370;-91
2022/01/26 08:08:22;;;;;;;15.03;8.75;;;;;;;-3.73;62.74;101113.66;1785529;80;21019;-86
2022/01/26 08:10:50;;;;;;;16.85;9.18;;;;;;;-3.71;62.69;101111.97;1786220;79;20943;-91
2022/01/26 08:13:17;;;;;;;15.50;8.78;;;;;;;-3.72;62.61;101114.51;1785118;80;21578;-93
2022/01/26 08:15:44;;;;;;;16.55;10.28;;;;;;;-3.73;62.61;101114.94;1784692;80;20915;-92
2022/01/26 08:18:12;;;;;;;13.70;9.00;;;;;;;-3.73;62.81;101116.22;1785428;79;20911;-90
2022/01/26 08:20:40;;;;;;;19.87;10.82;;;;;;;-3.71;62.95;101111.09;1786536;80;21503;-89
2022/01/26 08:23:07;;;;;;;25.15;11.05;;;;;;;-3.66;62.90;101109.44;1786274;80;20935;-91
2022/01/26 08:25:35;;;;;;;23.75;11.18;;;;;;;-3.58;62.80;101112.48;1787127;78;21114;-91
2022/01/26 08:28:13;;;;;;;13.70;9.13;;;;;;;-3.50;62.91;101107.38;1785073;80;20920;-89
2022/01/26 08:30:38;;;;;;;20.08;11.53;;;;;;;-3.39;62.92;101113.42;1755131;80;20884;-82
2022/01/26 08:33:05;;;;;;;19.75;10.38;;;;;;;-3.27;62.95;101111.77;1784067;80;20935;-84
2022/01/26 08:35:35;;;;;;;20.17;12.40;;;;;;;-3.16;62.78;101113.95;1784009;80;20987;-85
2022/01/26 08:38:05;;;;;;;17.50;9.30;;;;;;;-3.07;62.48;101106.72;1786686;80;21097;-84
2022/01/26 08:40:33;;;;;;;16.67;10.35;;;;;;;-3.01;61.88;101111.45;1787193;80;20951;-84
2022/01/26 08:43:05;;;;;;;23.12;12.18;;;;;;;-3.03;61.82;101114.86;1787150;80;20900;-85
2022/01/26 08:45:30;;;;;;;20.08;11.93;;;;;;;-3.04;61.91;101110.16;1785334;80;21018;-84
2022/01/26 08:47:57;;;;;;;18.40;11.12;;;;;;;-3.05;61.97;101114.00;1783806;80;20962;-79
2022/01/26 08:50:23;;;;;;;23.38;12.93;;;;;;;-3.08;61.90;101112.28;1784252;80;22155;-79
2022/01/26 08:52:50;;;;;;;19.17;11.38;;;;;;;-3.07;62.01;101112.70;1783843;80;21515;-82
2022/01/26 08:55:24;;;;;;;21.85;12.37;;;;;;;-3.03;62.06;101111.86;1783869;80;20853;-79
2022/01/26 08:57:51;;;;;;;17.67;9.58;;;;;;;-3.02;62.15;101110.18;1783767;80;20991;-77
2022/01/26 09:00:18;;;;;;;18.05;11.45;;;;;;;-2.96;62.36;101105.93;1783973;80;20852;-77
2022/01/26 09:02:46;;;;;;;20.40;11.75;;;;;;;-2.89;61.95;101108.09;1783473;80;21129;-78
2022/01/26 09:05:14;;;;;;;27.25;12.45;;;;;;;-2.86;61.58;101104.67;1783337;80;20928;-79
2022/01/26 09:07:44;;;;;;;18.87;12.88;;;;;;;-2.84;61.03;101106.81;1783429;80;20939;-78
2022/01/26 09:10:09;;;;;;;20.00;11.88;;;;;;;-2.85;60.75;101099.95;1783634;80;20920;-77
2022/01/26 09:12:41;;;;;;;26.57;13.83;;;;;;;-2.89;60.59;101100.79;1783701;80;20872;-77
2022/01/26 09:15:07;;;;;;;30.88;18.82;;;;;;;-2.90;60.73;101097.38;1783359;80;21177;-77
2022/01/26 09:17:35;;;;;;;62.25;27.10;;;;;;;-2.89;60.88;101099.51;1783601;80;21314;-79
2022/01/26 09:20:05;;;;;;;18.07;10.75;;;;;;;-2.90;60.95;101091.39;1783445;80;20947;-78
2022/01/26 09:22:33;;;;;;;19.25;13.08;;;;;;;-2.92;61.01;101095.23;1783987;80;21377;-78
2022/01/26 09:25:00;;;;;;;19.95;11.38;;;;;;;-2.90;60.94;101091.39;1753017;80;20936;-77
2022/01/26 09:27:27;;;;;;;17.80;10.63;;;;;;;-2.92;60.56;101094.80;1783265;80;21353;-79
2022/01/26 09:29:56;;;;;;;18.92;11.40;;;;;;;-2.88;60.28;101096.95;1780104;80;20923;-78
2022/01/26 09:32:23;;;;;;;20.15;12.55;;;;;;;-2.89;59.75;101099.51;1783468;80;21397;-77
2022/01/26 09:34:50;;;;;;;21.62;14.03;;;;;;;-2.91;59.98;101091.83;1783617;80;21007;-78
2022/01/26 09:37:17;;;;;;;20.20;12.88;;;;;;;-2.91;60.21;101093.11;1783414;80;21362;-80
2022/01/26 09:39:45;;;;;;;18.57;12.05;;;;;;;-2.88;60.55;101090.55;1783384;80;21144;-76
2022/01/26 09:42:12;;;;;;;19.02;12.75;;;;;;;-2.82;60.62;101091.84;1783610;80;21434;-79
2022/01/26 09:44:40;;;;;;;19.27;12.28;;;;;;;-2.77;60.25;101088.00;1783489;80;21050;-78
2022/01/26 09:47:07;;;;;;;17.52;13.00;;;;;;;-2.73;60.03;101076.90;1783615;80;21494;-81
2022/01/26 09:49:35;;;;;;;19.92;13.88;;;;;;;-2.69;59.64;101077.74;1783718;80;20924;-78
2022/01/26 09:52:13;;;;;;;27.75;14.25;;;;;;;-2.66;59.27;101082.47;1783720;80;21135;-79
2022/01/26 09:54:35;;;;;;;25.65;16.45;;;;;;;-2.66;58.89;101079.90;1782450;80;20931;-79
2022/01/26 09:57:04;;;;;;;31.82;17.27;;;;;;;-2.69;59.36;101079.91;1783313;80;20924;-80
2022/01/26 09:59:32;;;;;;;30.25;18.32;;;;;;;-2.69;59.34;101082.47;1783335;80;20944;-78
2022/01/26 10:02:01;;;;;;;32.75;21.48;;;;;;;-2.68;59.15;101079.03;1783597;80;20892;-78
2022/01/26 10:04:38;;;;;;;32.90;20.08;;;;;;;-2.69;58.94;101070.05;1783502;80;21864;-81
2022/01/26 10:07:29;;;;;;;36.83;21.12;;;;;;;-2.68;58.92;101071.77;1781618;80;21460;-79
2022/01/26 10:17:45;;;;;;;33.65;20.43;;;;;;;-2.40;58.94;101059.39;1783912;80;21157;-79
2022/01/26 10:20:17;;;;;;;35.80;22.02;;;;;;;-2.46;58.84;101057.25;1783439;80;20951;-79
2022/01/26 10:22:44;;;;;;;33.30;20.55;;;;;;;-2.50;59.17;101050.81;1783972;80;20893;-79
2022/01/26 10:25:14;;;;;;;32.48;17.60;;;;;;;-2.51;59.36;101054.25;1783590;80;21007;-79
2022/01/26 10:27:47;;;;;;;28.17;17.60;;;;;;;-2.48;59.42;101052.11;1783934;80;20916;-79
2022/01/26 10:30:15;;;;;;;25.27;16.45;;;;;;;-2.46;59.24;101050.83;1779493;80;21155;-79
2022/01/26 10:32:42;;;;;;;35.20;20.10;;;;;;;-2.53;58.93;101050.82;1783481;80;21429;-78
2022/01/26 10:35:11;;;;;;;29.10;17.32;;;;;;;-2.66;59.11;101041.39;1784015;80;20944;-78
2022/01/26 10:37:54;;;;;;;27.80;14.60;;;;;;;-2.69;59.42;101039.23;1783310;80;20940;-78
2022/01/26 10:40:24;;;;;;;23.47;13.58;;;;;;;-2.72;59.32;101033.68;1778849;80;20853;-78
2022/01/26 10:43:09;;;;;;;24.40;13.35;;;;;;;-2.78;59.45;101034.55;1783585;80;21130;-78
2022/01/26 10:46:01;;;;;;;20.57;13.00;;;;;;;-2.81;59.59;101034.95;1784259;80;20888;-79
2022/01/26 10:48:41;;;;;;;21.10;13.80;;;;;;;-2.84;59.42;101028.11;1783420;80;21178;-80
2022/01/26 10:53:50;;;;;;;21.80;12.88;;;;;;;-2.78;59.60;101028.53;1783576;80;20962;-78
2022/01/26 10:56:16;;;;;;;23.42;13.28;;;;;;;-2.84;59.77;101023.41;1783182;80;21565;-78
2022/01/26 10:58:43;;;;;;;18.92;11.83;;;;;;;-2.89;60.10;101018.68;1783386;80;21376;-77
2022/01/26 11:01:10;;;;;;;16.27;10.63;;;;;;;-2.90;60.06;101020.83;1783724;80;20972;-78
2022/01/26 11:03:38;;;;;;;21.25;13.53;;;;;;;-2.95;60.20;101013.98;1783546;80;20892;-79
2022/01/26 11:06:05;;;;;;;19.00;11.22;;;;;;;-2.97;60.22;101019.96;1783585;80;21484;-77
2022/01/26 11:08:38;;;;;;;21.37;13.22;;;;;;;-2.96;60.38;101021.66;1783601;80;21130;-77
2022/01/26 11:11:05;;;;;;;17.48;10.13;;;;;;;-2.95;60.49;101018.26;1783393;80;20920;-79
2022/01/26 11:13:37;;;;;;;18.00;10.82;;;;;;;-2.92;60.42;101023.38;1783630;80;20920;-79
2022/01/26 11:16:11;;;;;;;13.95;9.30;;;;;;;-2.96;60.34;101023.83;1783635;80;20935;-80
2022/01/26 11:18:52;;;;;;;24.37;12.53;;;;;;;-2.99;60.23;101024.23;1783666;80;20908;-79
2022/01/26 11:21:30;;;;;;;22.52;13.08;;;;;;;-3.03;60.32;101019.94;1783554;80;21136;-80
2022/01/26 11:24:20;;;;;;;19.30;11.22;;;;;;;-3.02;60.37;101020.39;1783747;80;20979;-79
2022/01/26 11:27:04;;;;;;;19.50;11.60;;;;;;;-3.05;60.38;101018.64;1783129;80;20912;-77
2022/01/26 11:29:35;;;;;;;17.65;10.48;;;;;;;-3.10;60.32;101013.94;1775204;80;20920;-79
2022/01/26 11:32:38;;;;;;;18.42;11.48;;;;;;;-3.04;60.57;101015.25;1775303;80;21529;-81
2022/01/26 11:34:51;;;;;;;17.42;10.98;;;;;;;-2.98;60.42;101013.98;1766277;80;21247;-81
2022/01/26 11:37:45;;;;;;;15.23;10.55;;;;;;;-2.97;60.26;101008.41;1775241;80;20963;-89
2022/01/26 11:45:34;;;;;;;16.30;10.40;;;;;;;-3.04;60.69;100994.72;1775303;80;20921;-83
2022/01/26 11:48:21;;;;;;;17.70;9.80;;;;;;;-3.03;60.76;101000.70;1775567;80;21160;-82
2022/01/26 11:51:01;;;;;;;20.23;13.15;;;;;;;-3.04;60.57;101002.42;1739054;82;20913;-79
2022/01/26 11:53:28;;;;;;;25.12;15.15;;;;;;;-3.07;60.80;100990.84;1775870;80;21085;-84
2022/01/26 11:56:07;;;;;;;19.30;12.70;;;;;;;-3.07;60.94;100998.98;1775772;80;20888;-84
2022/01/26 11:58:41;;;;;;;23.70;14.18;;;;;;;-3.08;60.68;100998.13;1774701;80;20936;-85
2022/01/26 12:01:15;;;;;;;19.65;12.43;;;;;;;-3.09;60.88;101001.97;1775625;80;21088;-86
2022/01/26 12:03:48;;;;;;;18.27;12.20;;;;;;;-3.13;60.94;101004.53;1775329;80;20865;-87
2022/01/26 12:06:21;;;;;;;23.22;13.60;;;;;;;-3.17;60.82;101005.81;1775802;80;20936;-86
2022/01/26 12:08:48;;;;;;;24.92;13.28;;;;;;;-3.19;60.83;101002.38;1775441;80;20897;-85
2022/01/26 12:11:16;;;;;;;21.45;14.10;;;;;;;-3.20;61.04;101007.06;1775322;80;21019;-86
2022/01/26 12:13:49;;;;;;;24.25;12.73;;;;;;;-3.19;61.32;101006.23;1775486;80;20880;-85
2022/01/26 12:16:17;;;;;;;28.27;15.68;;;;;;;-3.29;61.49;101008.33;1775192;80;20936;-88
2022/01/26 12:18:54;;;;;;;22.77;14.73;;;;;;;-3.32;61.74;101009.17;1775645;80;20892;-88
2022/01/26 12:37:56;;;;;;;23.10;14.40;;;;;;;-3.27;62.95;101006.63;1775466;80;20928;-82
2022/01/26 12:43:43;;;;;;;26.25;15.25;;;;;;;-3.23;62.98;101000.66;1678082;85;21601;-83
2022/01/26 12:46:21;;;;;;;22.22;14.60;;;;;;;-3.22;63.32;100998.54;1678393;85;21067;-82
2022/01/26 12:49:03;;;;;;;20.85;13.53;;;;;;;-3.20;63.12;101004.09;1678735;85;20929;-86
2022/01/26 12:51:31;;;;;;;21.62;13.03;;;;;;;-3.26;63.18;101002.80;1678373;83;21245;-85
2022/01/26 12:54:02;;;;;;;24.05;14.43;;;;;;;-3.37;63.16;101005.31;1679518;85;21372;-84
2022/01/26 12:56:31;;;;;;;17.57;12.05;;;;;;;-3.41;63.37;101010.43;1657770;85;20937;-86
2022/01/26 12:59:04;;;;;;;23.90;13.93;;;;;;;-3.43;63.37;101006.57;1679178;85;21393;-81
2022/01/26 13:01:31;;;;;;;23.42;14.18;;;;;;;-3.43;63.40;101005.72;1678643;85;20999;-81
2022/01/26 13:04:00;;;;;;;28.50;15.13;;;;;;;-3.42;63.32;101002.33;1679251;85;20946;-81
2022/01/26 13:06:31;;;;;;;25.95;15.00;;;;;;;-3.43;63.63;101000.59;1678801;85;21196;-80
2022/01/26 13:09:00;;;;;;;24.80;15.60;;;;;;;-3.39;63.66;101004.88;1678342;85;20909;-84
2022/01/26 13:11:33;;;;;;;27.22;16.17;;;;;;;-3.34;63.81;101001.91;1678690;84;21068;-80
2022/01/26 13:14:22;;;;;;;25.25;15.28;;;;;;;-3.27;63.75;101006.63;1678292;85;20881;-81
2022/01/26 13:17:34;;;;;;;23.42;14.70;;;;;;;-3.20;63.74;101007.06;1681538;80;20968;-83
2022/01/26 13:29:21;;;;;;;20.68;15.03;;;;;;;-3.19;63.18;101013.92;1776417;80;21015;-82
2022/01/26 13:30:50;;;;;;;31.17;17.35;;;;;;;-3.21;63.11;101013.91;1736526;80;20959;-82